Terminal Aerodrome Forecast
Issued by NWS Wilmington, NC

Home | Current Version | Previous Version | Text Only | Print | Product List | Glossary On
Versions: 1 2 3 4 5 6 7 8 9 10 11 12 13 14 15 16 17 18 19
000
FTUS42 KILM 182332
TAFFLO
TAF
KFLO 182332Z 1900/1924 11008KT P6SM BKN040
     FM190500 08005KT P6SM OVC015
     FM190800 07005KT P6SM VCSH OVC007
     FM191500 07004KT P6SM OVC015
     FM191900 11008KT P6SM BKN020=

USA.gov is the U.S. government's official web portal to all federal, state and local government web resources and services.